Flight Track Log - Related Links

Times and Time Zones

All times are in EST time to prevent confusion due to time zone crossing. See the EJA941 flight status page for this flight to view local times or setup timezone preferences in your user account.

Time Position Orientation Groundspeed Altitude Reporting Facility
EST Latitude Longitude Course Direction KTS MPH feet Rate Location/Type
Thu 10:29:53 AM 40.9167 -74.4833 242° Southwest 282 325 12,400  Level New York TRACON
Thu 10:30:48 AM 40.9164 -74.5908 270° West 323 372 13,700 1,774 Climbing New York Center
Thu 10:31:00 AM 40.7043 -74.4230 242° Southwest  Level Estimated
Thu 10:31:48 AM 40.9183 -74.7253 271° West 333 383 15,800  Level New York Center
Thu 10:32:00 AM 40.6503 -74.5559 242° Southwest  Level Estimated
Thu 10:32:48 AM 40.9169 -74.8269 269° West 353 406 17,000  Level New York Center
Thu 10:33:00 AM 40.5962 -74.6886 242° Southwest  Level Estimated
Thu 10:33:48 AM 40.9156 -74.9889 269° West 385 443 17,000  Level New York Center
Thu 10:34:00 AM 40.5420 -74.8211 242° Southwest  Level Estimated
Thu 10:34:48 AM 40.9164 -75.1317 270° West 395 455 18,100  Level New York Center
Thu 10:35:00 AM 40.4876 -74.9534 242° Southwest  Level Estimated
Thu 10:35:48 AM 40.8997 -75.2486 259° West 385 443 20,400  Level New York Center
Thu 10:36:48 AM 40.8694 -75.3839 254° West 378 435 22,400 1,850 Climbing New York Center
Thu 10:37:48 AM 40.8392 -75.5161 253° West 378 435 24,100 1,700 Climbing New York Center
Thu 10:38:48 AM 40.8083 -75.6567 254° West 384 442 25,800 1,650 Climbing New York Center
Thu 10:39:48 AM 40.7706 -75.8156 253° West 407 468 27,400 1,450 Climbing New York Center
Thu 10:40:48 AM 40.7378 -75.9475 252° West 418 481 28,700 1,500 Climbing New York Center
Thu 10:41:48 AM 40.6969 -76.1142 252° West 431 496 30,400 2,050 Climbing New York Center
Thu 10:42:48 AM 40.6800 -76.2550 261° West 436 502 32,800 2,100 Climbing New York Center
Thu 10:43:48 AM 40.6894 -76.4119 275° West 431 496 34,600 1,750 Climbing New York Center
Thu 10:44:48 AM 40.7161 -76.5894 281° West 451 519 36,300 1,700 Climbing New York Center
Thu 10:45:48 AM 40.7397 -76.7475 281° West 451 519 38,000 1,500 Climbing New York Center
Thu 10:46:48 AM 40.7631 -76.9003 281° West 443 510 39,300 1,000 Climbing New York Center
Thu 10:47:48 AM 40.7831 -77.0364 281° West 431 496 40,000 550 Climbing New York Center
Thu 10:48:48 AM 40.8047 -77.1781 281° West 431 496 40,400 503 Climbing New York Center
Thu 10:50:47 AM 40.8489 -77.4983 280° West 441 507 41,500 597 Climbing Cleveland Center
Thu 10:51:49 AM 40.8744 -77.6892 280° West 442 509 42,200 484 Climbing Cleveland Center
Thu 10:52:51 AM 40.8967 -77.8475 281° West 440 506 42,500 290 Climbing Cleveland Center
Thu 10:53:53 AM 40.9181 -78.0061 280° West 440 506 42,800 242 Climbing Cleveland Center
Thu 10:54:55 AM 40.9383 -78.1647 280° West 438 504 43,000 97 Climbing Cleveland Center
Thu 10:55:57 AM 40.9586 -78.3278 279° West 443 510 43,000  Level Cleveland Center
Thu 10:56:59 AM 40.9783 -78.4897 279° West 448 516 43,000  Level Cleveland Center
Thu 10:58:00 AM 40.9978 -78.6517 279° West 447 514 43,000  Level Cleveland Center
Thu 10:59:02 AM 41.0181 -78.8419 278° West 446 513 43,000  Level Cleveland Center
Thu 11:00:04 AM 41.0381 -79.0072 279° West 453 521 43,000  Level Cleveland Center
Thu 11:01:07 AM 41.0575 -79.1700 279° West 454 522 43,000  Level Cleveland Center
Thu 11:02:08 AM 41.0733 -79.3294 278° West 445 512 43,000  Level Cleveland Center
Thu 11:03:10 AM 41.0925 -79.4911 279° West 448 516 43,000  Level Cleveland Center
Thu 11:04:11 AM 41.1103 -79.6506 278° West 443 510 43,000  Level Cleveland Center
Thu 11:05:13 AM 41.1297 -79.8253 278° West 443 510 43,000  Level Cleveland Center
Thu 11:06:15 AM 41.1481 -80.0044 278° West 439 505 43,000  Level Cleveland Center
Thu 11:07:17 AM 41.1492 -80.1656 271° West 442 509 43,000  Level Cleveland Center
Thu 11:08:19 AM 41.1103 -80.3069 250° West 419 482 43,000  Level Cleveland Center
Thu 11:09:20 AM 41.0511 -80.4364 239° Southwest 415 478 43,000  Level Cleveland Center
Thu 11:10:22 AM 40.9803 -80.5908 239° Southwest 412 474 43,000  Level Cleveland Center
Thu 11:11:24 AM 40.9217 -80.7231 240° Southwest 417 480 43,000  Level Cleveland Center
Thu 11:12:26 AM 40.8644 -80.8525 240° Southwest 413 475 43,000  Level Cleveland Center
Thu 11:13:27 AM 40.8053 -80.9831 239° Southwest 417 480 43,000  Level Cleveland Center
Thu 11:14:29 AM 40.7386 -81.1269 239° Southwest 428 493 43,000  Level Cleveland Center
Thu 11:15:30 AM 40.6781 -81.2597 239° Southwest 419 482 43,000  Level Cleveland Center
Thu 11:16:32 AM 40.6167 -81.3928 239° Southwest 420 483 43,000  Level Cleveland Center
Thu 11:17:34 AM 40.5553 -81.5250 239° Southwest 419 482 43,000  Level Cleveland Center
Thu 11:18:35 AM 40.4936 -81.6575 239° Southwest 422 486 43,000  Level Cleveland Center
Thu 11:19:37 AM 40.4319 -81.7892 238° Southwest 418 481 43,000  Level Cleveland Center
Thu 11:20:39 AM 40.3697 -81.9183 238° Southwest 416 479 43,000  Level Cleveland Center
Thu 11:21:40 AM 40.3025 -82.0622 239° Southwest 419 482 43,000  Level Cleveland Center
Thu 11:22:42 AM 40.2408 -82.1939 238° Southwest 425 489 43,000  Level Cleveland Center
Thu 11:23:43 AM 40.1781 -82.3250 238° Southwest 426 490 43,000  Level Cleveland Center
Thu 11:24:45 AM 40.1147 -82.4581 238° Southwest 430 495 43,000  Level Cleveland Center
Thu 11:25:46 AM 40.0508 -82.5900 238° Southwest 432 497 43,000  Level Cleveland Center
Thu 11:26:48 AM 39.9861 -82.7239 238° Southwest 436 502 43,000  Level Cleveland Center
Thu 11:27:50 AM 39.9214 -82.8561 237° Southwest 434 499 43,000  Level Cleveland Center
Thu 11:28:51 AM 39.8425 -83.0156 237° Southwest 436 502 43,000  Level Cleveland Center
Thu 11:29:53 AM 39.7800 -83.1431 237° Southwest 437 503 43,000  Level Cleveland Center
Thu 11:30:54 AM 39.7114 -83.2847 238° Southwest 437 503 43,000  Level Cleveland Center
Thu 11:31:56 AM 39.6442 -83.4186 237° Southwest 437 503 43,000  Level Cleveland Center
Thu 11:32:58 AM 39.5781 -83.5525 237° Southwest 436 502 43,000  Level Cleveland Center
Thu 11:33:59 AM 39.5122 -83.6847 237° Southwest 435 501 43,000  Level Cleveland Center
Thu 11:35:21 AM 39.4186 -83.8711 237° Southwest 439 505 43,000  Level Indianapolis Center
Thu 11:36:23 AM 39.3528 -84.0033 237° Southwest 437 503 43,000  Level Indianapolis Center
Thu 11:37:24 AM 39.2856 -84.1356 237° Southwest 439 505 43,000  Level Indianapolis Center
Thu 11:38:26 AM 39.2186 -84.2669 237° Southwest 440 506 43,000  Level Indianapolis Center
Thu 11:39:28 AM 39.1525 -84.3981 237° Southwest 438 504 43,000  Level Indianapolis Center
Thu 11:40:29 AM 39.0850 -84.5278 236° Southwest 437 503 43,000  Level Indianapolis Center
Thu 11:41:31 AM 39.0200 -84.6600 238° Southwest 438 504 43,000  Level Indianapolis Center
Thu 11:42:32 AM 38.9381 -84.8139 236° Southwest 436 502 43,000  Level Indianapolis Center
Thu 11:43:34 AM 38.8717 -84.9447 237° Southwest 433 498 43,000  Level Indianapolis Center
Thu 11:44:35 AM 38.8047 -85.0725 236° Southwest 432 497 43,000  Level Indianapolis Center
Thu 11:45:37 AM 38.7378 -85.1994 236° Southwest 431 496 43,000  Level Indianapolis Center
Thu 11:46:38 AM 38.6717 -85.3267 236° Southwest 428 493 43,000  Level Indianapolis Center
Thu 11:47:40 AM 38.6017 -85.4589 236° Southwest 429 494 43,000  Level Indianapolis Center
Thu 11:48:42 AM 38.5336 -85.5867 236° Southwest 431 496 43,000  Level Indianapolis Center
Thu 11:49:43 AM 38.4667 -85.7133 236° Southwest 429 494 43,000  Level Indianapolis Center
Thu 11:50:45 AM 38.3986 -85.8406 236° Southwest 430 495 43,000  Level Indianapolis Center
Thu 11:51:46 AM 38.3308 -85.9681 236° Southwest 434 499 43,000  Level Indianapolis Center
Thu 11:52:47 AM 38.2633 -86.0953 236° Southwest 432 497 43,000  Level Indianapolis Center
Thu 11:53:49 AM 38.1950 -86.2219 236° Southwest 430 495 43,000  Level Indianapolis Center
Thu 11:54:50 AM 38.1131 -86.3744 236° Southwest 432 497 43,000  Level Indianapolis Center
Thu 11:55:52 AM 38.0442 -86.5006 235° Southwest 430 495 43,000  Level Indianapolis Center
Thu 11:56:53 AM 37.9756 -86.6267 235° Southwest 428 493 43,000  Level Indianapolis Center
Thu 11:57:55 AM 37.9064 -86.7528 235° Southwest 430 495 43,000  Level Indianapolis Center
Thu 11:58:56 AM 37.8378 -86.8778 235° Southwest 428 493 43,000  Level Indianapolis Center
Thu 11:59:57 AM 37.7686 -87.0033 235° Southwest 430 495 43,000  Level Indianapolis Center
Thu 12:00:59 PM 37.6989 -87.1278 235° Southwest 429 494 43,000  Level Indianapolis Center
Thu 12:02:00 PM 37.6256 -87.2594 235° Southwest 430 495 43,000  Level Indianapolis Center
Thu 12:03:01 PM 37.5564 -87.3839 235° Southwest 430 495 43,000  Level Indianapolis Center
Thu 12:04:03 PM 37.4867 -87.5086 235° Southwest 432 497 43,000  Level Indianapolis Center
Thu 12:05:04 PM 37.4172 -87.6331 235° Southwest 432 497 43,000  Level Indianapolis Center
Thu 12:06:06 PM 37.3469 -87.7553 234° Southwest 431 496 43,000  Level Indianapolis Center
Thu 12:07:07 PM 37.2772 -87.8794 235° Southwest 432 497 43,000  Level Indianapolis Center
Thu 12:08:08 PM 37.2061 -88.0033 234° Southwest 433 498 43,000  Level Indianapolis Center
Thu 12:09:10 PM 37.1369 -88.1275 235° Southwest 431 496 43,000  Level Indianapolis Center
Thu 12:10:11 PM 37.0653 -88.2511 234° Southwest 435 501 43,000  Level Indianapolis Center
Thu 12:11:12 PM 36.9942 -88.3750 234° Southwest 435 501 43,000  Level Indianapolis Center
Thu 12:12:14 PM 36.9225 -88.4994 234° Southwest 437 503 43,000  Level Indianapolis Center
Thu 12:13:15 PM 36.8383 -88.6439 234° Southwest 437 503 43,000  Level Indianapolis Center
Thu 12:14:17 PM 36.7675 -88.7681 235° Southwest 437 503 43,000  Level Indianapolis Center
Thu 12:15:37 PM 36.6775 -88.9222 234° Southwest 434 499 43,000  Level Memphis Center
Thu 12:16:39 PM 36.6061 -89.0436 234° Southwest 434 499 43,000  Level Memphis Center
Thu 12:17:41 PM 36.5350 -89.1647 234° Southwest 435 501 43,000  Level Memphis Center
Thu 12:18:43 PM 36.4619 -89.2903 234° Southwest 436 502 43,000  Level Memphis Center
Thu 12:19:45 PM 36.3769 -89.4308 233° Southwest 435 501 43,000  Level Memphis Center
Thu 12:20:47 PM 36.3122 -89.5417 234° Southwest 435 501 43,000  Level Memphis Center
Thu 12:21:49 PM 36.2408 -89.6622 234° Southwest 435 501 43,000  Level Memphis Center
Thu 12:22:51 PM 36.1542 -89.8061 233° Southwest 435 501 43,000  Level Memphis Center
Thu 12:23:53 PM 36.0819 -89.9258 233° Southwest 434 499 43,000  Level Memphis Center
Thu 12:24:55 PM 36.0108 -90.0450 234° Southwest 432 497 43,000  Level Memphis Center
Thu 12:25:57 PM 35.9381 -90.1644 233° Southwest 433 498 43,000  Level Memphis Center
Thu 12:26:59 PM 35.8650 -90.2831 233° Southwest 434 499 43,000  Level Memphis Center
Thu 12:28:01 PM 35.7931 -90.4025 233° Southwest 434 499 43,000  Level Memphis Center
Thu 12:29:03 PM 35.7197 -90.5214 233° Southwest 435 501 43,000  Level Memphis Center
Thu 12:30:05 PM 35.6383 -90.6539 233° Southwest 433 498 43,000  Level Memphis Center
Thu 12:31:07 PM 35.5664 -90.7739 234° Southwest 433 498 43,000  Level Memphis Center
Thu 12:32:09 PM 35.4914 -90.8922 232° Southwest 435 501 43,000  Level Memphis Center
Thu 12:33:12 PM 35.4050 -91.0300 232° Southwest 435 501 43,000  Level Memphis Center
Thu 12:34:14 PM 35.3431 -91.1319 233° Southwest 437 503 43,000  Level Memphis Center
Thu 12:35:16 PM 35.2544 -91.2733 233° Southwest 436 502 43,000  Level Memphis Center
Thu 12:36:18 PM 35.1797 -91.3931 233° Southwest 439 505 43,000  Level Memphis Center
Thu 12:37:20 PM 35.1042 -91.5139 233° Southwest 445 512 43,000  Level Memphis Center
Thu 12:38:22 PM 35.0267 -91.6347 232° Southwest 449 517 43,000  Level Memphis Center
Thu 12:39:24 PM 34.9500 -91.7567 233° Southwest 451 519 43,000  Level Memphis Center
Thu 12:40:26 PM 34.8731 -91.8761 232° Southwest 449 517 43,000  Level Memphis Center
Thu 12:41:28 PM 34.7842 -92.0167 232° Southwest 441 507 43,000  Level Memphis Center
Thu 12:42:30 PM 34.7081 -92.1350 232° Southwest 442 509 43,000  Level Memphis Center
Thu 12:43:32 PM 34.6342 -92.2536 233° Southwest 441 507 43,000  Level Memphis Center
Thu 12:44:34 PM 34.5619 -92.3733 234° Southwest 440 506 43,000  Level Memphis Center
Thu 12:45:36 PM 34.4906 -92.4931 234° Southwest 438 504 43,000  Level Memphis Center
Thu 12:46:38 PM 34.4172 -92.6128 233° Southwest 440 506 43,000  Level Memphis Center
Thu 12:47:41 PM 34.3453 -92.7328 234° Southwest 440 506 43,000  Level Memphis Center
Thu 12:48:43 PM 34.2619 -92.8675 233° Southwest 440 506 43,000  Level Memphis Center
Thu 12:49:45 PM 34.1892 -92.9875 234° Southwest 442 509 43,000  Level Memphis Center
Thu 12:50:47 PM 34.1156 -93.1064 233° Southwest 443 510 43,000  Level Memphis Center
Thu 12:51:49 PM 34.0414 -93.2253 233° Southwest 443 510 43,000  Level Memphis Center
Thu 12:52:51 PM 33.9536 -93.3689 234° Southwest 445 512 43,000  Level Memphis Center
Thu 12:53:53 PM 33.8794 -93.4875 233° Southwest 445 512 43,000  Level Memphis Center
Thu 12:54:55 PM 33.8050 -93.6058 233° Southwest 445 512 43,000  Level Memphis Center
Thu 12:55:39 PM 33.7461 -93.7000 233° Southwest 445 512 43,000  Level Fort Worth Center
Thu 12:56:41 PM 33.6736 -93.8175 233° Southwest 442 509 43,000  Level Fort Worth Center
Thu 12:57:43 PM 33.5992 -93.9358 233° Southwest 448 516 43,000  Level Fort Worth Center
Thu 12:58:45 PM 33.5253 -94.0522 233° Southwest 447 514 43,000  Level Fort Worth Center
Thu 12:59:48 PM 33.4211 -94.1789 225° Southwest 454 522 43,000  Level Fort Worth Center
Thu 01:00:50 PM 33.3311 -94.2819 224° Southwest 455 524 43,000  Level Fort Worth Center
Thu 01:01:52 PM 33.2414 -94.3875 225° Southwest 454 522 43,000  Level Fort Worth Center
Thu 01:02:54 PM 33.1511 -94.4917 224° Southwest 454 522 43,000  Level Fort Worth Center
Thu 01:03:56 PM 33.0417 -94.6144 223° Southwest 451 519 43,000  Level Fort Worth Center
Thu 01:04:58 PM 32.9511 -94.7175 224° Southwest 452 520 43,000  Level Fort Worth Center
Thu 01:06:00 PM 32.8614 -94.8211 224° Southwest 451 519 43,000  Level Fort Worth Center
Thu 01:07:02 PM 32.7717 -94.9225 224° Southwest 449 517 43,000  Level Fort Worth Center
Thu 01:08:04 PM 32.6806 -95.0242 223° Southwest 450 518 43,000  Level Fort Worth Center
Thu 01:09:07 PM 32.5906 -95.1261 224° Southwest 451 519 43,000  Level Fort Worth Center
Thu 01:10:09 PM 32.4819 -95.2478 223° Southwest 449 517 43,000  Level Fort Worth Center
Thu 01:11:11 PM 32.3964 -95.3447 224° Southwest 451 519 43,000  Level Fort Worth Center
Thu 01:12:13 PM 32.3053 -95.4453 223° Southwest 449 517 43,000  Level Fort Worth Center
Thu 01:13:15 PM 32.2025 -95.5597 223° Southwest 449 517 43,000  Level Fort Worth Center
Thu 01:14:17 PM 32.1036 -95.6694 223° Southwest 452 520 43,000  Level Fort Worth Center
Thu 01:15:19 PM 32.0122 -95.7706 223° Southwest 451 519 43,000  Level Fort Worth Center
Thu 01:16:21 PM 31.9258 -95.8664 223° Southwest 461 531 43,000  Level Fort Worth Center
Thu 01:17:23 PM 31.8158 -95.9867 223° Southwest 466 536 43,000  Level Fort Worth Center
Thu 01:18:26 PM 31.7194 -96.0922 223° Southwest 468 539 43,000  Level Fort Worth Center
Thu 01:19:28 PM 31.6233 -96.1978 223° Southwest 468 539 43,000  Level Fort Worth Center
Thu 01:20:30 PM 31.5269 -96.3022 223° Southwest 468 539 43,000  Level Fort Worth Center
Thu 01:21:32 PM 31.4433 -96.4189 230° Southwest 464 534 43,000  Level Fort Worth Center
Thu 01:22:34 PM 31.3661 -96.5386 233° Southwest 459 528 43,000  Level Fort Worth Center
Thu 01:23:36 PM 31.2750 -96.6789 233° Southwest 459 528 43,000  Level Fort Worth Center
Thu 01:24:38 PM 31.1967 -96.8003 233° Southwest 462 532 43,000  Level Fort Worth Center
Thu 01:25:40 PM 31.1178 -96.9203 232° Southwest 461 531 43,000  Level Fort Worth Center
Thu 01:26:42 PM 31.0381 -97.0417 233° Southwest 464 534 43,000  Level Fort Worth Center
Thu 01:27:44 PM 30.9564 -97.1636 232° Southwest 468 539 43,000  Level Fort Worth Center
Thu 01:28:47 PM 30.8714 -97.2931 233° Southwest 471 542 43,000  Level Fort Worth Center
Thu 01:29:49 PM 30.7881 -97.4181 232° Southwest 479 551 43,000  Level Fort Worth Center
Thu 01:30:51 PM 30.7061 -97.5411 232° Southwest 477 549 43,000  Level Fort Worth Center
Thu 01:31:53 PM 30.6244 -97.6650 233° Southwest 478 550 43,000  Level Fort Worth Center
Thu 01:32:55 PM 30.5406 -97.7881 232° Southwest 480 552 43,000  Level Fort Worth Center
Thu 01:33:57 PM 30.4442 -97.9314 232° Southwest 478 550 43,000  Level Fort Worth Center
Thu 01:34:59 PM 30.3622 -98.0544 232° Southwest 478 550 43,000  Level Fort Worth Center
Thu 01:36:13 PM 30.2622 -98.2028 232° Southwest 476 548 43,000  Level Houston Center
Thu 01:37:15 PM 30.1761 -98.3306 232° Southwest 470 541 43,000  Level Houston Center
Thu 01:38:17 PM 30.0958 -98.4489 232° Southwest 470 541 43,000  Level Houston Center
Thu 01:39:19 PM 30.0097 -98.5753 232° Southwest 468 539 43,000  Level Houston Center
Thu 01:40:22 PM 29.9300 -98.6917 232° Southwest 463 533 43,000  Level Houston Center
Thu 01:41:24 PM 29.8433 -98.8164 231° Southwest 463 533 43,000  Level Houston Center
Thu 01:42:26 PM 29.7650 -98.9319 232° Southwest 460 529 43,000  Level Houston Center
Thu 01:43:28 PM 29.6797 -99.0544 231° Southwest 459 528 43,000  Level Houston Center
Thu 01:44:31 PM 29.6006 -99.1697 232° Southwest 460 529 43,000  Level Houston Center
Thu 01:45:32 PM 29.5136 -99.2944 231° Southwest 465 535 43,000  Level Houston Center
Thu 01:46:34 PM 29.4389 -99.4017 231° Southwest 464 534 43,000  Level Houston Center
Thu 01:47:37 PM 29.3558 -99.5194 231° Southwest 469 540 43,000  Level Houston Center
Thu 01:48:39 PM 29.2736 -99.6367 231° Southwest 471 542 43,000  Level Houston Center
Thu 01:49:41 PM 29.1919 -99.7522 231° Southwest 468 539 43,000  Level Houston Center
Thu 01:50:43 PM 29.0922 -99.8919 231° Southwest 470 541 43,000  Level Houston Center
Thu 01:51:45 PM 29.0092 -100.0103 231° Southwest 474 545 43,000  Level Houston Center
Thu 01:52:47 PM 28.9261 -100.1264 231° Southwest 473 544 43,000  Level Houston Center
Thu 01:53:49 PM 28.8444 -100.2433 231° Southwest 471 542 43,000  Level Houston Center
Thu 01:54:52 PM 28.7608 -100.3589 230° Southwest 471 542 43,000  Level Houston Center
Thu 01:55:54 PM 28.6794 -100.4722 231° Southwest 464 534 43,000  Level Houston Center
Thu 01:57:00 PM 28.5714 -100.5591 207° Southwest  Level FlightAware Approximate
Thu 02:04:00 PM 27.8204 -100.9833 207° Southwest  Level FlightAware Approximate
Thu 02:05:00 PM 27.7130 -101.0434 206° Southwest  Level FlightAware Approximate
Thu 02:06:00 PM 27.6056 -101.1034 206° Southwest  Level FlightAware Approximate
Thu 02:07:00 PM 27.4981 -101.1632 206° Southwest  Level FlightAware Approximate
Thu 02:08:00 PM 27.3907 -101.2230 206° Southwest  Level FlightAware Approximate
Thu 02:09:00 PM 27.2832 -101.2826 206° Southwest  Level FlightAware Approximate
Thu 02:10:00 PM 27.1757 -101.3421 206° Southwest  Level FlightAware Approximate
Thu 02:11:00 PM 27.0681 -101.4016 206° Southwest  Level FlightAware Approximate
Thu 02:12:00 PM 26.9606 -101.4609 206° Southwest  Level FlightAware Approximate
Thu 02:13:00 PM 26.8548 -101.5239 208° Southwest  Level FlightAware Approximate
Thu 02:14:00 PM 26.7491 -101.5873 208° Southwest  Level FlightAware Approximate
Thu 02:15:00 PM 26.6435 -101.6506 208° Southwest  Level FlightAware Approximate
Thu 02:16:00 PM 26.5397 -101.7176 211° Southwest  Level FlightAware Approximate
Thu 02:17:00 PM 26.4365 -101.7857 211° Southwest  Level FlightAware Approximate
Thu 02:18:00 PM 26.3333 -101.8537 211° Southwest  Level FlightAware Approximate
Thu 02:19:00 PM 26.2301 -101.9216 211° Southwest  Level FlightAware Approximate
Thu 02:20:00 PM 26.1268 -101.9894 211° Southwest  Level FlightAware Approximate
Thu 02:21:00 PM 26.0235 -102.0570 210° Southwest  Level FlightAware Approximate
Thu 02:22:00 PM 25.9206 -102.1252 211° Southwest  Level FlightAware Approximate
Thu 02:23:00 PM 25.8178 -102.1937 211° Southwest  Level FlightAware Approximate
Thu 02:24:00 PM 25.7128 -102.2578 208° Southwest  Level FlightAware Approximate
Thu 02:25:00 PM 25.6068 -102.3197 208° Southwest  Level FlightAware Approximate
Thu 02:26:00 PM 25.5019 -102.3839 209° Southwest  Level FlightAware Approximate
Thu 02:27:00 PM 25.3973 -102.4488 209° Southwest  Level FlightAware Approximate
Thu 02:28:00 PM 25.2927 -102.5135 209° Southwest  Level FlightAware Approximate
Thu 02:29:00 PM 25.1881 -102.5781 209° Southwest  Level FlightAware Approximate
Thu 02:30:00 PM 25.0835 -102.6426 209° Southwest  Level FlightAware Approximate
Thu 02:31:00 PM 24.9788 -102.7070 209° Southwest  Level FlightAware Approximate
Thu 02:32:00 PM 24.8741 -102.7713 209° Southwest  Level FlightAware Approximate
Thu 02:33:00 PM 24.7694 -102.8356 209° Southwest  Level FlightAware Approximate
Thu 02:34:00 PM 24.6649 -102.9002 209° Southwest  Level FlightAware Approximate
Thu 02:35:00 PM 24.5604 -102.9647 209° Southwest  Level FlightAware Approximate
Thu 02:36:00 PM 24.4559 -103.0290 209° Southwest  Level FlightAware Approximate
Thu 02:37:00 PM 24.3513 -103.0933 209° Southwest  Level FlightAware Approximate
Thu 02:38:00 PM 24.2467 -103.1575 209° Southwest  Level FlightAware Approximate
Thu 02:39:00 PM 24.1419 -103.2213 208° Southwest  Level FlightAware Approximate
Thu 02:40:00 PM 24.0357 -103.2820 208° Southwest  Level FlightAware Approximate
Thu 02:41:00 PM 23.9316 -103.3470 210° Southwest  Level FlightAware Approximate
Thu 02:42:00 PM 23.8271 -103.4112 209° Southwest  Level FlightAware Approximate
Thu 02:43:00 PM 23.7224 -103.4749 209° Southwest  Level FlightAware Approximate
Thu 02:44:00 PM 23.6178 -103.5386 209° Southwest  Level FlightAware Approximate
Thu 02:45:00 PM 23.5130 -103.6022 209° Southwest  Level FlightAware Approximate
Thu 02:46:00 PM 23.4078 -103.6647 209° Southwest  Level FlightAware Approximate
Thu 02:47:00 PM 23.3026 -103.7271 209° Southwest  Level FlightAware Approximate
Thu 02:48:00 PM 23.1973 -103.7895 209° Southwest  Level FlightAware Approximate
Thu 02:49:00 PM 23.0920 -103.8517 209° Southwest  Level FlightAware Approximate
Thu 02:50:00 PM 22.9861 -103.9127 208° Southwest  Level FlightAware Approximate
Thu 02:51:00 PM 22.8818 -103.9768 210° Southwest  Level FlightAware Approximate
Thu 02:52:00 PM 22.7785 -104.0425 210° Southwest  Level FlightAware Approximate
Thu 02:53:00 PM 22.6718 -104.1018 207° Southwest  Level FlightAware Approximate
Thu 02:54:00 PM 22.5657 -104.1618 212° Southwest  Level FlightAware Approximate
Thu 02:55:00 PM 22.4636 -104.2298 212° Southwest  Level FlightAware Approximate
Thu 02:56:00 PM 22.3565 -104.2834 207° Southwest  Level FlightAware Approximate
Thu 02:57:00 PM 22.2507 -104.3440 212° Southwest  Level FlightAware Approximate
Thu 02:58:00 PM 22.1452 -104.4052 207° Southwest  Level FlightAware Approximate
Thu 02:59:00 PM 22.0380 -104.4629 207° Southwest  Level FlightAware Approximate
Thu 03:00:00 PM 21.9328 -104.5248 210° Southwest  Level FlightAware Approximate
Thu 03:01:00 PM 21.8287 -104.5888 210° Southwest  Level FlightAware Approximate
Thu 03:02:00 PM 21.7256 -104.6545 208° Southwest  Level FlightAware Approximate
Thu 03:03:00 PM 21.6201 -104.7157 208° Southwest  Level FlightAware Approximate
Thu 03:04:00 PM 21.5146 -104.7767 208° Southwest  Level FlightAware Approximate
Thu 03:05:00 PM 21.4088 -104.8373 205° Southwest  Level FlightAware Approximate
Thu 03:06:00 PM 21.3019 -104.8953 207° Southwest  Level FlightAware Approximate
Thu 03:07:00 PM 21.1953 -104.9541 207° Southwest  Level FlightAware Approximate
Thu 03:08:00 PM 21.0885 -105.0124 207° Southwest  Level FlightAware Approximate
Thu 03:09:00 PM 20.9820 -105.0712 207° Southwest  Level FlightAware Approximate
Thu 03:10:00 PM 20.8766 -105.1322 212° Southwest  Level FlightAware Approximate
Thu 03:11:00 PM 20.7699 -105.1901 205° Southwest  Level FlightAware Approximate
Thu 03:12:00 PM 20.6801 -105.2542 209° Southwest  Level Estimated
Thu 03:13:00 PM 20.6801 -105.2542 209° Southwest  Level Estimated
Thu 03:14:00 PM 20.6801 -105.2542 209° Southwest  Level Estimated
Thu 03:15:00 PM 20.6801 -105.2542 209° Southwest  Level Estimated
Thu 03:16:00 PM 20.6801 -105.2542 209° Southwest  Level Estimated
Thu 03:17:00 PM 20.6801 -105.2542 209° Southwest  Level Estimated
Thu 03:18:00 PM 20.6801 -105.2542 209° Southwest  Level Estimated
Thu 03:19:00 PM 20.6801 -105.2542 209° Southwest  Level Estimated
Thu 03:20:00 PM 20.6801 -105.2542 209° Southwest  Level Estimated
Thu 03:21:00 PM 20.6801 -105.2542 209° Southwest  Level Estimated
Thu 03:22:00 PM 20.6801 -105.2542 209° Southwest  Level Estimated
Thu 03:23:00 PM 20.6801 -105.2542 209° Southwest  Level Estimated
Thu 03:24:00 PM 20.6801 -105.2542 209° Southwest  Level Estimated
Thu 03:25:00 PM 20.6801 -105.2542 209° Southwest  Level Estimated
Thu 03:26:00 PM 20.6801 -105.2542 209° Southwest  Level Estimated
Thu 03:27:00 PM 20.6801 -105.2542 209° Southwest  Level Estimated
Thu 03:28:00 PM 20.6801 -105.2542 209° Southwest  Level Estimated

Login

Don't have an account? Register now (free) for customized features, flight alerts, and more!